createdAt,value
2023-03-05T00:02:07.077Z,86.00
2023-03-05T00:04:34.562Z,84.15
2023-03-05T00:07:01.727Z,83.61
2023-03-05T00:09:28.683Z,83.15
2023-03-05T00:11:55.734Z,83.71
2023-03-05T00:14:23.480Z,82.88
2023-03-05T00:16:50.601Z,84.00
2023-03-05T00:19:17.634Z,84.85
2023-03-05T00:21:44.601Z,84.97
2023-03-05T00:24:18.082Z,84.65
2023-03-05T00:26:46.571Z,83.83
2023-03-05T00:29:18.627Z,85.84
2023-03-05T00:31:47.493Z,84.67
2023-03-05T00:34:16.898Z,84.32
2023-03-05T00:36:47.204Z,85.06
2023-03-05T00:39:15.023Z,84.97
2023-03-05T00:41:41.953Z,83.99
2023-03-05T00:44:09.685Z,82.87
2023-03-05T00:46:38.630Z,85.34
2023-03-05T00:49:05.863Z,87.83
2023-03-05T00:51:33.707Z,88.36
2023-03-05T00:54:00.694Z,89.28
2023-03-05T00:56:27.990Z,89.45
2023-03-05T00:58:55.176Z,90.01
2023-03-05T01:01:22.657Z,91.15
2023-03-05T01:03:51.107Z,91.07
2023-03-05T01:06:19.567Z,90.78
2023-03-05T01:08:46.761Z,88.46
2023-03-05T01:11:14.305Z,83.09
2023-03-05T01:13:41.705Z,79.08
2023-03-05T01:16:08.956Z,73.17
2023-03-05T01:18:37.960Z,74.03
2023-03-05T01:21:05.679Z,73.46
2023-03-05T01:23:35.647Z,74.30
2023-03-05T01:26:03.493Z,73.35
2023-03-05T01:28:30.676Z,72.93
2023-03-05T01:30:58.369Z,72.74
2023-03-05T01:33:27.063Z,69.17
2023-03-05T01:35:54.323Z,67.64
2023-03-05T01:38:22.933Z,68.15
2023-03-05T01:40:51.268Z,66.91
2023-03-05T01:43:27.433Z,66.42
2023-03-05T01:46:30.545Z,65.55
2023-03-05T01:49:03.016Z,65.32
2023-03-05T01:51:35.551Z,67.09
2023-03-05T01:54:04.521Z,68.52
2023-03-05T01:56:31.620Z,68.39
2023-03-05T01:59:03.712Z,70.00
2023-03-05T02:01:34.004Z,71.33
2023-03-05T02:04:02.336Z,69.39
2023-03-05T02:06:29.549Z,69.10
2023-03-05T02:08:56.925Z,68.17
2023-03-05T02:11:24.219Z,67.60
2023-03-05T02:13:51.456Z,63.24
2023-03-05T02:16:18.846Z,62.28
2023-03-05T02:18:48.636Z,63.07
2023-03-05T02:21:28.438Z,63.45
2023-03-05T02:23:55.450Z,63.16
2023-03-05T02:26:22.577Z,62.39
2023-03-05T02:28:54.413Z,62.76
2023-03-05T02:31:23.960Z,64.82
2023-03-05T02:33:52.416Z,63.72
2023-03-05T02:36:20.427Z,63.39
2023-03-05T02:38:48.262Z,63.08
2023-03-05T02:41:15.900Z,61.34
2023-03-05T02:43:42.748Z,61.33
2023-03-05T02:46:10.251Z,61.80
2023-03-05T02:48:36.939Z,64.13
2023-03-05T02:51:05.427Z,64.50
2023-03-05T02:53:32.309Z,64.85
2023-03-05T02:55:59.214Z,66.83
2023-03-05T02:58:26.368Z,66.36
2023-03-05T03:00:53.413Z,68.91
2023-03-05T03:03:20.694Z,72.31
2023-03-05T03:05:47.733Z,75.95
2023-03-05T03:08:15.195Z,76.82
2023-03-05T03:10:42.261Z,76.57
2023-03-05T03:13:09.296Z,77.30
2023-03-05T03:15:38.026Z,73.88
2023-03-05T03:18:05.152Z,73.09
2023-03-05T03:20:34.836Z,74.47
2023-03-05T03:23:02.147Z,71.05
2023-03-05T03:25:29.059Z,73.28
2023-03-05T03:27:56.056Z,73.30
2023-03-05T03:30:23.161Z,72.60
2023-03-05T03:32:52.369Z,72.62
2023-03-05T03:35:19.595Z,71.93
2023-03-05T03:37:47.547Z,71.17
2023-03-05T03:40:14.698Z,70.11
2023-03-05T03:42:41.743Z,68.35
2023-03-05T03:45:10.136Z,66.86
2023-03-05T03:47:37.191Z,63.77
2023-03-05T03:50:05.046Z,56.70
2023-03-05T03:52:32.221Z,57.00
2023-03-05T03:55:02.087Z,55.76
2023-03-05T03:57:30.128Z,56.64
2023-03-05T03:59:57.234Z,55.98
2023-03-05T04:02:24.407Z,58.19
2023-03-05T04:04:51.932Z,58.90
2023-03-05T04:07:19.588Z,60.05
2023-03-05T04:09:46.756Z,60.99
2023-03-05T04:12:17.953Z,62.48
2023-03-05T04:14:46.206Z,61.46
2023-03-05T04:17:13.491Z,62.82
2023-03-05T04:19:41.107Z,62.76
2023-03-05T04:22:13.003Z,63.63
2023-03-05T04:24:40.108Z,63.47
2023-03-05T04:27:07.480Z,63.27
2023-03-05T04:29:34.698Z,63.21
2023-03-05T04:32:02.149Z,63.01
2023-03-05T04:34:29.317Z,63.27
2023-03-05T04:36:56.286Z,62.57
2023-03-05T04:39:23.397Z,61.98
2023-03-05T04:41:50.423Z,62.31
2023-03-05T04:44:17.941Z,62.35
2023-03-05T04:46:45.174Z,62.33
2023-03-05T04:49:12.077Z,62.68
2023-03-05T04:51:39.477Z,63.47
2023-03-05T04:54:06.553Z,63.14
2023-03-05T04:56:33.567Z,62.12
2023-03-05T04:59:00.612Z,59.76
2023-03-05T05:01:27.958Z,55.94
2023-03-05T05:03:55.052Z,56.58
2023-03-05T05:06:21.772Z,57.80
2023-03-05T05:08:49.556Z,56.36
2023-03-05T05:11:16.600Z,55.39
2023-03-05T05:13:43.786Z,56.11
2023-03-05T05:16:10.991Z,57.22
2023-03-05T05:18:37.985Z,56.87
2023-03-05T05:21:12.916Z,56.90
2023-03-05T05:23:40.244Z,57.48
2023-03-05T05:26:08.684Z,57.83
2023-03-05T05:28:36.111Z,58.79
2023-03-05T05:31:08.325Z,59.93
2023-03-05T05:33:35.658Z,60.64
2023-03-05T05:36:07.846Z,60.86
2023-03-05T05:38:35.618Z,60.83
2023-03-05T05:41:11.409Z,59.98
2023-03-05T05:43:38.857Z,61.28
2023-03-05T05:46:08.580Z,61.23
2023-03-05T05:48:36.463Z,60.97
2023-03-05T05:51:11.427Z,63.10
2023-03-05T05:53:38.747Z,62.29
2023-03-05T05:56:07.687Z,62.45
2023-03-05T05:58:36.788Z,62.38
2023-03-05T06:01:11.776Z,63.68
2023-03-05T06:03:38.852Z,62.32
2023-03-05T06:06:17.902Z,63.71
2023-03-05T06:08:44.913Z,63.02
2023-03-05T06:11:12.256Z,63.49
2023-03-05T06:13:39.647Z,63.60
2023-03-05T06:16:11.143Z,63.56
2023-03-05T06:18:38.471Z,64.45
2023-03-05T06:21:12.954Z,64.24
2023-03-05T06:23:40.431Z,62.02
2023-03-05T06:26:08.624Z,60.35
2023-03-05T06:28:35.832Z,60.73
2023-03-05T06:31:07.638Z,59.11
2023-03-05T06:33:35.811Z,59.74
2023-03-05T06:36:05.395Z,59.92
2023-03-05T06:38:32.987Z,58.09
2023-03-05T06:41:09.313Z,57.51
2023-03-05T06:43:41.221Z,57.72
2023-03-05T06:46:10.869Z,57.46
2023-03-05T06:48:38.048Z,57.18
2023-03-05T06:51:05.186Z,57.10
2023-03-05T06:53:32.492Z,54.60
2023-03-05T06:56:01.462Z,56.58
2023-03-05T06:58:28.581Z,55.16
2023-03-05T07:00:55.766Z,55.05
2023-03-05T07:03:22.793Z,54.79
2023-03-05T07:05:49.888Z,54.27
2023-03-05T07:08:17.156Z,53.23
2023-03-05T07:10:44.691Z,53.84
2023-03-05T07:13:11.821Z,53.21
2023-03-05T07:15:41.052Z,53.67
2023-03-05T07:18:08.508Z,54.18
2023-03-05T07:20:36.632Z,54.11
2023-03-05T07:23:04.277Z,53.30
2023-03-05T07:25:32.230Z,53.07
2023-03-05T07:28:03.451Z,53.57
2023-03-05T07:30:30.221Z,50.79
2023-03-05T07:32:57.385Z,51.64
2023-03-05T07:35:24.746Z,50.27
2023-03-05T07:37:52.346Z,51.49
2023-03-05T07:40:19.440Z,51.35
2023-03-05T07:42:46.498Z,50.56
2023-03-05T07:45:13.464Z,50.08
2023-03-05T07:47:40.444Z,49.93
2023-03-05T07:50:08.224Z,48.07
2023-03-05T07:52:35.401Z,47.97
2023-03-05T07:55:02.568Z,47.61
2023-03-05T07:57:29.724Z,46.93
2023-03-05T07:59:56.723Z,46.54
2023-03-05T08:02:23.866Z,47.43
2023-03-05T08:04:50.858Z,47.09
2023-03-05T08:07:18.029Z,48.44
2023-03-05T08:09:45.201Z,46.73
2023-03-05T08:12:12.600Z,48.22
2023-03-05T08:14:39.730Z,47.64
2023-03-05T08:17:06.743Z,46.01
2023-03-05T08:19:34.008Z,44.90
2023-03-05T08:22:01.342Z,43.44
2023-03-05T08:24:29.877Z,42.79
2023-03-05T08:26:58.353Z,42.05
2023-03-05T08:29:26.440Z,40.17
2023-03-05T08:31:54.043Z,39.38
2023-03-05T08:34:21.727Z,37.77
2023-03-05T08:36:49.058Z,39.14
2023-03-05T08:39:17.084Z,38.69
2023-03-05T08:41:44.431Z,40.17
2023-03-05T08:44:12.600Z,38.00
2023-03-05T08:46:40.529Z,38.02
2023-03-05T08:49:07.775Z,36.37
2023-03-05T08:51:35.976Z,36.40
2023-03-05T08:54:07.044Z,36.22
2023-03-05T08:56:35.413Z,34.90
2023-03-05T08:59:04.133Z,35.47
2023-03-05T09:01:32.402Z,37.24
2023-03-05T09:04:00.439Z,34.89
2023-03-05T09:06:28.154Z,37.34
2023-03-05T09:08:55.521Z,36.47
2023-03-05T09:11:23.311Z,38.57
2023-03-05T09:13:50.661Z,35.24
2023-03-05T09:16:19.452Z,35.69
2023-03-05T09:18:46.828Z,34.29
2023-03-05T09:21:16.885Z,33.34
2023-03-05T09:23:45.060Z,33.44
2023-03-05T09:26:13.689Z,30.65
2023-03-05T09:28:42.293Z,32.70
2023-03-05T09:31:09.902Z,32.25
2023-03-05T09:33:37.995Z,30.19
2023-03-05T09:36:06.811Z,28.30
2023-03-05T09:38:37.703Z,30.78
2023-03-05T09:41:15.641Z,29.95
2023-03-05T09:43:55.135Z,30.83
2023-03-05T09:46:54.777Z,26.93
2023-03-05T09:49:46.918Z,28.74
2023-03-05T09:52:21.625Z,29.90
2023-03-05T09:54:55.243Z,26.98
2023-03-05T09:57:28.781Z,27.87
2023-03-05T10:00:03.080Z,29.22
2023-03-05T10:02:36.810Z,30.43
2023-03-05T10:05:20.191Z,31.16
2023-03-05T10:08:03.297Z,29.89
2023-03-05T10:10:40.083Z,30.61
2023-03-05T10:13:34.828Z,31.62
2023-03-05T10:16:27.374Z,31.53
2023-03-05T10:19:13.379Z,28.45
2023-03-05T10:21:50.482Z,27.59
2023-03-05T10:24:36.750Z,29.68
2023-03-05T10:27:25.676Z,30.53
2023-03-05T10:30:06.068Z,28.60
2023-03-05T10:32:42.090Z,28.47
2023-03-05T10:35:17.995Z,28.71
2023-03-05T10:38:15.165Z,28.52
2023-03-05T10:40:52.263Z,26.53
2023-03-05T10:43:48.826Z,28.81
2023-03-05T10:46:22.797Z,29.32
2023-03-05T10:48:54.663Z,32.56
2023-03-05T10:51:32.265Z,31.03
2023-03-05T10:54:04.813Z,31.16
2023-03-05T10:56:34.289Z,30.79
2023-03-05T10:59:01.728Z,30.45
2023-03-05T11:01:31.448Z,30.45
2023-03-05T11:04:07.050Z,28.12
2023-03-05T11:06:36.576Z,27.47
2023-03-05T11:09:29.481Z,26.86
2023-03-05T11:12:18.332Z,28.61
2023-03-05T11:14:47.581Z,27.49
2023-03-05T11:17:37.977Z,26.53
2023-03-05T11:20:17.619Z,25.87
2023-03-05T11:23:04.793Z,26.59
2023-03-05T11:25:34.353Z,25.39
2023-03-05T11:28:03.530Z,25.68
2023-03-05T11:30:36.483Z,25.89
2023-03-05T11:33:10.754Z,25.38
2023-03-05T11:35:41.355Z,24.32
2023-03-05T11:38:16.050Z,25.29
2023-03-05T11:40:43.706Z,25.64
2023-03-05T11:43:17.219Z,22.43
2023-03-05T11:45:46.422Z,22.56
2023-03-05T11:48:30.225Z,25.74
2023-03-05T11:51:02.128Z,23.30
2023-03-05T11:53:35.441Z,22.03
2023-03-05T11:56:27.039Z,22.81
2023-03-05T11:59:02.092Z,22.91
2023-03-05T12:01:32.728Z,23.86
2023-03-05T12:04:00.981Z,25.43
2023-03-05T12:06:30.469Z,25.17
2023-03-05T12:09:02.416Z,23.73
2023-03-05T12:11:32.835Z,25.74
2023-03-05T12:14:28.458Z,24.39
2023-03-05T12:17:08.616Z,27.21
2023-03-05T12:19:41.132Z,25.94
2023-03-05T12:22:23.730Z,26.39
2023-03-05T12:24:51.391Z,27.53
2023-03-05T12:27:35.883Z,26.17
2023-03-05T12:30:04.182Z,26.62
2023-03-05T12:32:35.252Z,27.93
2023-03-05T12:35:22.384Z,27.65
2023-03-05T12:37:50.031Z,27.74
2023-03-05T12:40:27.964Z,26.62
2023-03-05T12:42:59.140Z,27.70
2023-03-05T12:45:30.318Z,27.51
2023-03-05T12:47:57.017Z,28.25
2023-03-05T12:50:26.869Z,29.49
2023-03-05T12:52:53.730Z,32.57
2023-03-05T12:55:40.013Z,33.08
2023-03-05T12:58:31.389Z,32.93
2023-03-05T13:01:08.035Z,32.88
2023-03-05T13:03:39.264Z,33.31
2023-03-05T13:06:08.232Z,33.99
2023-03-05T13:08:37.834Z,34.86
2023-03-05T13:11:08.694Z,34.05
2023-03-05T13:13:38.719Z,33.63
2023-03-05T13:16:16.022Z,32.94
2023-03-05T13:18:47.903Z,34.34
2023-03-05T13:21:16.226Z,35.18
2023-03-05T13:23:57.973Z,33.73
2023-03-05T13:26:30.600Z,34.67
2023-03-05T13:29:18.447Z,35.63
2023-03-05T13:32:00.979Z,34.25
2023-03-05T13:34:47.046Z,34.22
2023-03-05T13:37:18.362Z,33.97
2023-03-05T13:40:00.532Z,34.40
2023-03-05T13:42:34.704Z,34.02
2023-03-05T13:45:04.073Z,34.62
2023-03-05T13:47:34.220Z,35.06
2023-03-05T13:50:21.874Z,35.03
2023-03-05T13:52:50.078Z,34.13
2023-03-05T13:55:18.330Z,33.82
2023-03-05T13:57:52.829Z,32.18
2023-03-05T14:00:29.549Z,31.80
2023-03-05T14:03:00.169Z,32.25
2023-03-05T14:05:28.583Z,32.22
2023-03-05T14:07:56.655Z,30.49
2023-03-05T14:10:37.162Z,31.38
2023-03-05T14:13:17.098Z,31.03
2023-03-05T14:16:03.749Z,29.57
2023-03-05T14:18:31.084Z,29.89
2023-03-05T14:21:01.633Z,29.42
2023-03-05T14:23:48.199Z,30.37
2023-03-05T14:26:29.226Z,30.94
2023-03-05T14:29:03.707Z,30.67
2023-03-05T14:31:36.721Z,30.51
2023-03-05T14:34:07.144Z,31.63
2023-03-05T14:36:35.614Z,32.19
2023-03-05T14:39:02.696Z,31.96
2023-03-05T14:41:41.614Z,32.47
2023-03-05T14:44:13.429Z,33.31
2023-03-05T14:46:41.449Z,34.00
2023-03-05T14:49:09.156Z,33.61
2023-03-05T14:51:42.572Z,33.53
2023-03-05T14:54:25.911Z,33.18
2023-03-05T14:56:53.216Z,33.57
2023-03-05T14:59:23.569Z,33.15
2023-03-05T15:01:51.179Z,35.56
2023-03-05T15:04:19.833Z,35.18
2023-03-05T15:06:48.196Z,35.40
2023-03-05T15:09:17.787Z,36.17
2023-03-05T15:11:47.405Z,36.80
2023-03-05T15:14:14.200Z,42.52
2023-03-05T15:16:43.282Z,44.65
2023-03-05T15:19:14.196Z,39.25
2023-03-05T15:21:42.180Z,41.31
2023-03-05T15:24:11.266Z,43.67
2023-03-05T15:26:39.044Z,43.62
2023-03-05T15:29:05.928Z,43.22
2023-03-05T15:31:38.590Z,43.96
2023-03-05T15:34:05.680Z,45.35
2023-03-05T15:36:33.685Z,46.12
2023-03-05T15:39:00.911Z,46.77
2023-03-05T15:41:27.832Z,46.96
2023-03-05T15:43:54.520Z,47.19
2023-03-05T15:46:21.285Z,46.76
2023-03-05T15:48:50.122Z,48.93
2023-03-05T15:51:17.755Z,47.97
2023-03-05T15:53:46.374Z,48.35
2023-03-05T15:56:19.313Z,49.11
2023-03-05T15:58:48.512Z,49.20
2023-03-05T16:01:15.697Z,48.11
2023-03-05T16:03:42.480Z,50.48
2023-03-05T16:06:09.977Z,48.42
2023-03-05T16:08:37.213Z,51.29
2023-03-05T16:11:05.291Z,52.13
2023-03-05T16:13:34.439Z,52.69
2023-03-05T16:16:04.742Z,51.63
2023-03-05T16:18:33.730Z,53.49
2023-03-05T16:21:00.798Z,54.37
2023-03-05T16:23:27.734Z,55.49
2023-03-05T16:25:54.344Z,56.06
2023-03-05T16:28:21.410Z,55.97
2023-03-05T16:30:58.500Z,57.17
2023-03-05T16:33:26.059Z,56.71
2023-03-05T16:36:14.525Z,57.39
2023-03-05T16:38:41.269Z,57.35
2023-03-05T16:41:08.967Z,58.48
2023-03-05T16:43:35.923Z,58.29
2023-03-05T16:46:02.769Z,57.88
2023-03-05T16:48:29.997Z,57.93
2023-03-05T16:50:57.773Z,58.82
2023-03-05T16:53:24.500Z,58.80
2023-03-05T16:55:51.312Z,60.08
2023-03-05T16:58:18.055Z,59.90
2023-03-05T17:00:45.054Z,61.41
2023-03-05T17:03:11.906Z,66.12
2023-03-05T17:05:38.600Z,65.48
2023-03-05T17:08:05.759Z,63.85
2023-03-05T17:10:33.480Z,64.53
2023-03-05T17:13:00.977Z,76.24
2023-03-05T17:15:27.810Z,70.06
2023-03-05T17:17:54.638Z,70.42
2023-03-05T17:20:21.480Z,70.86
2023-03-05T17:22:48.160Z,72.19
2023-03-05T17:25:14.906Z,73.86
2023-03-05T17:27:41.603Z,71.07
2023-03-05T17:30:10.406Z,70.87
2023-03-05T17:32:37.108Z,73.12
2023-03-05T17:35:05.513Z,74.77
2023-03-05T17:37:32.955Z,76.96
2023-03-05T17:39:59.764Z,77.65
2023-03-05T17:42:26.727Z,75.94
2023-03-05T17:44:53.439Z,75.47
2023-03-05T17:47:22.420Z,74.68
2023-03-05T17:49:50.254Z,74.89
2023-03-05T17:52:18.205Z,74.41
2023-03-05T17:54:44.918Z,75.12
2023-03-05T17:57:11.710Z,76.60
2023-03-05T17:59:38.401Z,76.14
2023-03-05T18:02:05.048Z,74.60
2023-03-05T18:04:32.906Z,78.59
2023-03-05T18:07:01.664Z,78.36
2023-03-05T18:09:28.372Z,77.23
2023-03-05T18:11:55.095Z,76.91
2023-03-05T18:14:21.835Z,79.53
2023-03-05T18:16:48.769Z,81.79
2023-03-05T18:19:15.957Z,84.19
2023-03-05T18:21:42.740Z,84.54
2023-03-05T18:24:09.604Z,82.74
2023-03-05T18:26:36.588Z,82.41
2023-03-05T18:29:03.577Z,82.37
2023-03-05T18:31:30.261Z,82.22
2023-03-05T18:33:57.302Z,81.01
2023-03-05T18:36:24.413Z,80.46
2023-03-05T18:38:51.142Z,80.56
2023-03-05T18:41:25.729Z,79.53
2023-03-05T18:43:54.559Z,80.43
2023-03-05T18:46:21.563Z,80.95
2023-03-05T18:48:48.401Z,82.36
2023-03-05T18:51:19.787Z,79.78
2023-03-05T18:53:46.590Z,82.25
2023-03-05T18:56:14.128Z,82.49
2023-03-05T18:58:40.929Z,82.75
2023-03-05T19:01:09.261Z,82.01
2023-03-05T19:03:36.212Z,83.81
2023-03-05T19:06:06.162Z,83.94
2023-03-05T19:08:33.291Z,83.39
2023-03-05T19:11:00.440Z,83.90
2023-03-05T19:13:43.820Z,84.13
2023-03-05T19:16:13.480Z,83.83
2023-03-05T19:18:53.906Z,84.81
2023-03-05T19:21:20.675Z,85.80
2023-03-05T19:23:47.358Z,85.96
2023-03-05T19:26:14.133Z,85.96
2023-03-05T19:28:40.794Z,86.68
2023-03-05T19:31:07.568Z,86.32
2023-03-05T19:33:34.253Z,84.71
2023-03-05T19:36:01.002Z,84.86
2023-03-05T19:38:27.794Z,83.73
2023-03-05T19:40:54.618Z,84.79
2023-03-05T19:43:21.475Z,84.18
2023-03-05T19:45:48.107Z,85.74
2023-03-05T19:48:16.874Z,85.74
2023-03-05T19:50:43.732Z,86.21
2023-03-05T19:53:10.646Z,86.02
2023-03-05T19:55:40.030Z,87.30
2023-03-05T19:58:06.770Z,87.90
2023-03-05T20:00:33.603Z,88.54
2023-03-05T20:03:00.420Z,88.52
2023-03-05T20:05:27.486Z,88.62
2023-03-05T20:07:54.300Z,89.02
2023-03-05T20:10:21.792Z,90.08
2023-03-05T20:12:50.440Z,91.46
2023-03-05T20:15:18.468Z,91.38
2023-03-05T20:17:45.792Z,92.02
2023-03-05T20:20:15.248Z,92.69
2023-03-05T20:22:46.454Z,92.53
2023-03-05T20:25:24.856Z,93.08
2023-03-05T20:27:51.966Z,92.31
2023-03-05T20:30:19.913Z,93.17
2023-03-05T20:32:47.405Z,93.81
2023-03-05T20:35:16.669Z,94.38
2023-03-05T20:37:50.037Z,94.78
2023-03-05T20:40:17.185Z,95.19
2023-03-05T20:42:43.917Z,96.03
2023-03-05T20:45:11.064Z,96.94
2023-03-05T20:47:40.839Z,97.74
2023-03-05T20:50:09.947Z,98.32
2023-03-05T20:52:37.898Z,98.13
2023-03-05T20:55:06.348Z,99.01
2023-03-05T20:57:33.760Z,98.87
2023-03-05T21:00:00.588Z,98.82
2023-03-05T21:02:27.930Z,99.12
2023-03-05T21:04:54.736Z,99.59
2023-03-05T21:07:21.581Z,99.68
2023-03-05T21:09:48.282Z,100.09
2023-03-05T21:12:14.983Z,100.06
2023-03-05T21:14:41.757Z,99.84
2023-03-05T21:17:08.893Z,99.83
2023-03-05T21:19:39.086Z,100.21
2023-03-05T21:22:05.927Z,99.93
2023-03-05T21:24:43.561Z,100.41
2023-03-05T21:27:10.683Z,100.87
2023-03-05T21:29:37.488Z,100.77
2023-03-05T21:32:04.841Z,101.56
2023-03-05T21:34:31.667Z,101.60
2023-03-05T21:36:58.530Z,102.06
2023-03-05T21:39:25.232Z,102.43
2023-03-05T21:41:51.934Z,102.75
2023-03-05T21:44:19.067Z,102.54
2023-03-05T21:46:45.753Z,102.82
2023-03-05T21:49:12.621Z,102.70
2023-03-05T21:51:50.768Z,101.99
2023-03-05T21:54:17.399Z,101.95
2023-03-05T21:56:44.200Z,101.83
2023-03-05T21:59:11.029Z,101.09
2023-03-05T22:01:37.706Z,101.95
2023-03-05T22:04:04.738Z,100.90
2023-03-05T22:06:31.479Z,100.87
2023-03-05T22:08:58.250Z,99.50
2023-03-05T22:11:25.008Z,99.67
2023-03-05T22:13:51.734Z,99.82
2023-03-05T22:16:26.329Z,99.95
2023-03-05T22:18:53.825Z,100.32
2023-03-05T22:21:23.257Z,100.11
2023-03-05T22:23:50.020Z,100.46
2023-03-05T22:26:16.746Z,101.12
2023-03-05T22:28:43.546Z,100.85
2023-03-05T22:31:10.569Z,101.44
2023-03-05T22:33:37.978Z,101.13
2023-03-05T22:36:09.841Z,101.87
2023-03-05T22:38:36.690Z,100.94
2023-03-05T22:41:08.329Z,100.68
2023-03-05T22:43:35.493Z,102.09
2023-03-05T22:46:31.900Z,102.06
2023-03-05T22:48:58.778Z,102.53
2023-03-05T22:51:25.420Z,102.83
2023-03-05T22:53:52.155Z,103.63
2023-03-05T22:56:20.310Z,104.09
2023-03-05T22:58:47.570Z,104.94
2023-03-05T23:01:16.966Z,104.95
2023-03-05T23:03:44.111Z,105.86
2023-03-05T23:06:10.982Z,106.52
2023-03-05T23:08:37.827Z,107.39
2023-03-05T23:11:10.014Z,108.48
2023-03-05T23:13:37.103Z,109.28
2023-03-05T23:16:04.197Z,108.69
2023-03-05T23:18:31.966Z,109.45
2023-03-05T23:20:58.829Z,109.59
2023-03-05T23:23:25.629Z,110.11
2023-03-05T23:25:53.157Z,111.03
2023-03-05T23:28:20.409Z,111.84
2023-03-05T23:30:47.193Z,112.29
2023-03-05T23:33:19.421Z,112.50
2023-03-05T23:35:57.448Z,113.03
2023-03-05T23:38:25.960Z,113.03
2023-03-05T23:40:55.526Z,113.83
2023-03-05T23:43:25.058Z,113.22
2023-03-05T23:45:54.980Z,113.53
2023-03-05T23:48:26.469Z,113.93
2023-03-05T23:50:53.685Z,114.59
2023-03-05T23:53:23.365Z,114.47
2023-03-05T23:55:50.822Z,115.03
2023-03-05T23:58:20.499Z,115.37
